Observation data for Guthrie on 11/14/2019      Previous  Date  Next       Current Mesonet Observations  Soil Data  Daily Summary Page  Observations in Plain Language
KPFS 140600Z 00003KT 01/M01 A3006 RMK A01 T00141011  RH  084%=      5-min Rain = 0
KPFS 140605Z 01002KT 01/M02 A3006 RMK A01 T00091016  RH  084%=      5-min Rain = 0
KPFS 140610Z 01003KT 01/M01 A3006 RMK A01 T00101013  RH  086%=      5-min Rain = 0
KPFS 140615Z 01003KT 01/M01 A3007 RMK A01 T00141008  RH  086%=      5-min Rain = 0
KPFS 140620Z 36003KT 02/M01 A3007 RMK A01 T00151009  RH  085%=      5-min Rain = 0
KPFS 140625Z 36003KT 01/M02 A3007 RMK A01 T00101015  RH  085%=      5-min Rain = 0
KPFS 140630Z 36003KT 01/M02 A3007 RMK A01 T00051018  RH  085%=      5-min Rain = 0
KPFS 140635Z 35003KT 00/M02 A3008 RMK A01 T00031017  RH  087%=      5-min Rain = 0
KPFS 140640Z 34004KT M00/M02 A3008 RMK A01 T10011020  RH  087%=      5-min Rain = 0
KPFS 140645Z 35005KT M00/M02 A3008 RMK A01 T10041022  RH  088%=      5-min Rain = 0
KPFS 140650Z 34005KT 00/M02 A3009 RMK A01 T00011016  RH  089%=      5-min Rain = 0
KPFS 140655Z 34005KT 01/M01 A3009 RMK A01 T00051012  RH  089%=      5-min Rain = 0
KPFS 140700Z 35006KT 01/M01 A3009 RMK A01 T00061011  RH  089%=      5-min Rain = 0
KPFS 140705Z 35007KT 01/M01 A3009 RMK A01 T00071012  RH  088%=      5-min Rain = 0
KPFS 140710Z 35008KT 01/M01 A301 RMK A01 T00091011  RH  088%=      5-min Rain = 0
KPFS 140715Z 35007KT 01/M01 A301 RMK A01 T00081013  RH  087%=      5-min Rain = 0
KPFS 140720Z 35007KT 01/M01 A301 RMK A01 T00101012  RH  086%=      5-min Rain = 0
KPFS 140725Z 35008KT 01/M01 A301 RMK A01 T00101013  RH  086%=      5-min Rain = 0
KPFS 140730Z 35007KT 01/M01 A301 RMK A01 T00111012  RH  086%=      5-min Rain = 0
KPFS 140735Z 35007KT 01/M01 A301 RMK A01 T00111012  RH  085%=      5-min Rain = 0
KPFS 140740Z 35006KT 01/M01 A3011 RMK A01 T00121011  RH  085%=      5-min Rain = 0
KPFS 140745Z 35007KT 01/M01 A3011 RMK A01 T00121011  RH  085%=      5-min Rain = 0
KPFS 140750Z 35007KT 01/M01 A3011 RMK A01 T00131011  RH  085%=      5-min Rain = 0
KPFS 140755Z 35008KT 01/M01 A3011 RMK A01 T00141011  RH  084%=      5-min Rain = 0
KPFS 140800Z 35008KT 01/M01 A3012 RMK A01 T00131011  RH  084%=      5-min Rain = 0
KPFS 140805Z 36007KT 01/M01 A3012 RMK A01 T00141010  RH  085%=      5-min Rain = 0
KPFS 140810Z 35007KT 02/M01 A3012 RMK A01 T00171009  RH  084%=      5-min Rain = 0
KPFS 140815Z 36007KT 02/M01 A3013 RMK A01 T00191008  RH  083%=      5-min Rain = 0
KPFS 140820Z 36007KT 02/M01 A3013 RMK A01 T00191008  RH  083%=      5-min Rain = 0
KPFS 140825Z 36007KT 02/M01 A3013 RMK A01 T00181008  RH  083%=      5-min Rain = 0
KPFS 140830Z 36007KT 02/M01 A3013 RMK A01 T00191008  RH  083%=      5-min Rain = 0
KPFS 140835Z 00007KT 02/M01 A3014 RMK A01 T00191009  RH  083%=      5-min Rain = 0
KPFS 140840Z 00007KT 02/M01 A3014 RMK A01 T00181009  RH  083%=      5-min Rain = 0
KPFS 140845Z 00008KT 02/M01 A3014 RMK A01 T00171009  RH  084%=      5-min Rain = 0
KPFS 140850Z 00008KT 02/M01 A3014 RMK A01 T00151010  RH  084%=      5-min Rain = 0
KPFS 140855Z 00008KT 01/M01 A3015 RMK A01 T00131011  RH  085%=      5-min Rain = 0
KPFS 140900Z 36008KT 01/M01 A3015 RMK A01 T00121011  RH  085%=      5-min Rain = 0
KPFS 140905Z 00007KT 01/M01 A3015 RMK A01 T00121011  RH  085%=      5-min Rain = 0
KPFS 140910Z 00007KT 01/M01 A3015 RMK A01 T00121012  RH  085%=      5-min Rain = 0
KPFS 140915Z 00007KT 01/M01 A3015 RMK A01 T00121013  RH  084%=      5-min Rain = 0
KPFS 140920Z 36007KT 01/M01 A3015 RMK A01 T00111014  RH  084%=      5-min Rain = 0
KPFS 140925Z 36009KT 01/M01 A3015 RMK A01 T00121014  RH  084%=      5-min Rain = 0
KPFS 140930Z 36009KT 01/M02 A3016 RMK A01 T00121015  RH  083%=      5-min Rain = 0
KPFS 140935Z 00009KT 01/M02 A3016 RMK A01 T00121016  RH  082%=      5-min Rain = 0
KPFS 140940Z 01009KT 01/M02 A3016 RMK A01 T00111018  RH  082%=      5-min Rain = 0
KPFS 140945Z 01008KT 01/M02 A3016 RMK A01 T00101019  RH  082%=      5-min Rain = 0
KPFS 140950Z 01008KT 01/M02 A3017 RMK A01 T00091020  RH  082%=      5-min Rain = 0
KPFS 140955Z 01008KT 01/M02 A3017 RMK A01 T00081021  RH  082%=      5-min Rain = 0
KPFS 141000Z 01009KT 01/M02 A3017 RMK A01 T00081021  RH  082%=      5-min Rain = 0
KPFS 141005Z 01009KT 01/M02 A3017 RMK A01 T00061022  RH  082%=      5-min Rain = 0
KPFS 141010Z 00009KT 01/M02 A3017 RMK A01 T00051023  RH  082%=      5-min Rain = 0
KPFS 141015Z 00009KT 00/M02 A3017 RMK A01 T00041024  RH  082%=      5-min Rain = 0
KPFS 141020Z 00009KT 01/M03 A3018 RMK A01 T00051025  RH  081%=      5-min Rain = 0
KPFS 141025Z 00008KT 01/M03 A3018 RMK A01 T00051026  RH  080%=      5-min Rain = 0
KPFS 141030Z 01008KT 01/M03 A3018 RMK A01 T00051028  RH  079%=      5-min Rain = 0
KPFS 141035Z 01008KT 01/M03 A3018 RMK A01 T00051029  RH  078%=      5-min Rain = 0
KPFS 141040Z 01008KT 01/M03 A3018 RMK A01 T00061030  RH  077%=      5-min Rain = 0
KPFS 141045Z 01009KT 01/M03 A3019 RMK A01 T00061031  RH  077%=      5-min Rain = 0
KPFS 141050Z 01008G13KT 01/M03 A3019 RMK A01 T00061033  RH  076%=      5-min Rain = 0
KPFS 141055Z 01007KT 01/M03 A3019 RMK A01 T00051033  RH  076%=      5-min Rain = 0
KPFS 141100Z 00007KT 01/M03 A3019 RMK A01 T00061034  RH  075%=      5-min Rain = 0
KPFS 141105Z 00008KT 01/M04 A3019 RMK A01 T00061035  RH  074%=      5-min Rain = 0
KPFS 141110Z 36007KT 01/M04 A3019 RMK A01 T00051036  RH  075%=      5-min Rain = 0
KPFS 141115Z 00007KT 01/M04 A302 RMK A01 T00051036  RH  074%=      5-min Rain = 0
KPFS 141120Z 36006KT 00/M04 A302 RMK A01 T00041036  RH  074%=      5-min Rain = 0
KPFS 141125Z 36006KT 00/M04 A3021 RMK A01 T00041036  RH  075%=      5-min Rain = 0
KPFS 141130Z 36007KT 01/M04 A3021 RMK A01 T00051036  RH  075%=      5-min Rain = 0
KPFS 141135Z 00006KT 00/M04 A3021 RMK A01 T00041036  RH  075%=      5-min Rain = 0
KPFS 141140Z 01007G12KT 01/M04 A3021 RMK A01 T00051035  RH  075%=      5-min Rain = 0
KPFS 141145Z 01007KT 01/M04 A3021 RMK A01 T00051036  RH  075%=      5-min Rain = 0
KPFS 141150Z 00007KT 01/M04 A3022 RMK A01 T00051036  RH  074%=      5-min Rain = 0
KPFS 141155Z 00007KT 01/M04 A3022 RMK A01 T00061036  RH  074%=      5-min Rain = 0
KPFS 141200Z 36008G14KT 01/M04 A3022 RMK A01 T00081036  RH  073%=      5-min Rain = 0
KPFS 141205Z 36009KT 01/M04 A3023 RMK A01 T00131037  RH  069%=      5-min Rain = 0
KPFS 141210Z 36007KT 01/M04 A3023 RMK A01 T00121038  RH  069%=      5-min Rain = 0
KPFS 141215Z 36007KT 01/M04 A3024 RMK A01 T00081038  RH  071%=      5-min Rain = 0
KPFS 141220Z 00007KT 01/M04 A3024 RMK A01 T00071038  RH  072%=      5-min Rain = 0
KPFS 141225Z 00008KT 01/M04 A3024 RMK A01 T00061038  RH  073%=      5-min Rain = 0
KPFS 141230Z 00008KT 01/M04 A3024 RMK A01 T00051037  RH  074%=      5-min Rain = 0
KPFS 141235Z 00008KT 01/M04 A3024 RMK A01 T00051037  RH  074%=      5-min Rain = 0
KPFS 141240Z 00008KT 01/M04 A3025 RMK A01 T00051037  RH  074%=      5-min Rain = 0
KPFS 141245Z 00008KT 01/M04 A3025 RMK A01 T00051036  RH  074%=      5-min Rain = 0
KPFS 141250Z 00008KT 01/M04 A3025 RMK A01 T00051036  RH  074%=      5-min Rain = 0
KPFS 141255Z 00009KT 01/M04 A3025 RMK A01 T00061037  RH  074%=      5-min Rain = 0
KPFS 141300Z 00009KT 01/M04 A3025 RMK A01 T00051037  RH  074%=      5-min Rain = 0
KPFS 141305Z 01008KT 01/M04 A3025 RMK A01 T00061037  RH  073%=      5-min Rain = 0
KPFS 141310Z 00008KT 01/M04 A3026 RMK A01 T00071037  RH  073%=      5-min Rain = 0
KPFS 141315Z 00009KT 01/M04 A3026 RMK A01 T00081037  RH  072%=      5-min Rain = 0
KPFS 141320Z 00009KT 01/M04 A3027 RMK A01 T00101036  RH  071%=      5-min Rain = 0
KPFS 141325Z 01009KT 01/M04 A3027 RMK A01 T00111036  RH  071%=      5-min Rain = 0
KPFS 141330Z 00010G15KT 01/M04 A3027 RMK A01 T00121035  RH  071%=      5-min Rain = 0
KPFS 141335Z 00010KT 01/M04 A3027 RMK A01 T00131035  RH  071%=      5-min Rain = 0
KPFS 141340Z 01011G16KT 02/M04 A3028 RMK A01 T00161035  RH  069%=      5-min Rain = 0
KPFS 141345Z 01012KT 02/M04 A3028 RMK A01 T00201037  RH  066%=      5-min Rain = 0
KPFS 141350Z 01009KT 02/M04 A3028 RMK A01 T00201037  RH  067%=      5-min Rain = 0
KPFS 141355Z 00009G15KT 02/M04 A3029 RMK A01 T00201036  RH  067%=      5-min Rain = 0
KPFS 141400Z 00011KT 02/M04 A3029 RMK A01 T00211035  RH  067%=      5-min Rain = 0
KPFS 141405Z 01011G16KT 02/M03 A3029 RMK A01 T00241034  RH  066%=      5-min Rain = 0
KPFS 141410Z 01011KT 03/M03 A3029 RMK A01 T00271034  RH  065%=      5-min Rain = 0
KPFS 141415Z 01011KT 03/M03 A303 RMK A01 T00281032  RH  065%=      5-min Rain = 0
KPFS 141420Z 01012G18KT 03/M03 A303 RMK A01 T00311031  RH  064%=      5-min Rain = 0
KPFS 141425Z 01012G18KT 03/M03 A3031 RMK A01 T00341029  RH  063%=      5-min Rain = 0
KPFS 141430Z 01012G17KT 04/M03 A3031 RMK A01 T00361028  RH  063%=      5-min Rain = 0
KPFS 141435Z 01009G15KT 04/M03 A3032 RMK A01 T00381027  RH  063%=      5-min Rain = 0
KPFS 141440Z 01010G16KT 04/M02 A3033 RMK A01 T00411024  RH  063%=      5-min Rain = 0
KPFS 141445Z 01010KT 04/M02 A3033 RMK A01 T00441023  RH  062%=      5-min Rain = 0
KPFS 141450Z 01010G15KT 05/M02 A3034 RMK A01 T00461022  RH  062%=      5-min Rain = 0
KPFS 141455Z 02010G15KT 05/M02 A3034 RMK A01 T00501020  RH  061%=      5-min Rain = 0
KPFS 141500Z 02012KT 06/M02 A3034 RMK A01 T00551018  RH  060%=      5-min Rain = 0
KPFS 141505Z 02013G18KT 06/M02 A3034 RMK A01 T00591015  RH  060%=      5-min Rain = 0
KPFS 141510Z 02011G17KT 06/M01 A3035 RMK A01 T00641012  RH  059%=      5-min Rain = 0
KPFS 141515Z 02013G19KT 06/M01 A3035 RMK A01 T00641012  RH  059%=      5-min Rain = 0
KPFS 141520Z 02013KT 07/M01 A3035 RMK A01 T00661010  RH  059%=      5-min Rain = 0
KPFS 141525Z 02012G18KT 07/M01 A3035 RMK A01 T00701008  RH  058%=      5-min Rain = 0
KPFS 141530Z 02014KT 07/M01 A3035 RMK A01 T00701009  RH  058%=      5-min Rain = 0
KPFS 141535Z 02012G19KT 07/M01 A3036 RMK A01 T00731008  RH  057%=      5-min Rain = 0
KPFS 141540Z 03013G18KT 07/M01 A3036 RMK A01 T00731009  RH  057%=      5-min Rain = 0
KPFS 141545Z 02011G19KT 08/M01 A3036 RMK A01 T00781007  RH  055%=      5-min Rain = 0
KPFS 141550Z 03014G20KT 08/M01 A3037 RMK A01 T00761009  RH  055%=      5-min Rain = 0
KPFS 141555Z 02014G21KT 08/M01 A3037 RMK A01 T00781008  RH  055%=      5-min Rain = 0
KPFS 141600Z 02013G19KT 08/M01 A3037 RMK A01 T00771009  RH  055%=      5-min Rain = 0
KPFS 141605Z 02011G16KT 08/M01 A3037 RMK A01 T00811008  RH  054%=      5-min Rain = 0
KPFS 141610Z 03013G18KT 08/M01 A3038 RMK A01 T00811009  RH  054%=      5-min Rain = 0
KPFS 141615Z 03012KT 08/M01 A3038 RMK A01 T00841007  RH  053%=      5-min Rain = 0
KPFS 141620Z 03014G20KT 09/M01 A3038 RMK A01 T00861008  RH  052%=      5-min Rain = 0
KPFS 141625Z 02016KT 08/M01 A3038 RMK A01 T00831010  RH  053%=      5-min Rain = 0
KPFS 141630Z 04014G19KT 09/M01 A3038 RMK A01 T00871009  RH  051%=      5-min Rain = 0
KPFS 141635Z 02012G17KT 09/M01 A3038 RMK A01 T00871009  RH  051%=      5-min Rain = 0
KPFS 141640Z 04013G18KT 09/M01 A3038 RMK A01 T00911008  RH  050%=      5-min Rain = 0
KPFS 141645Z 03012G17KT 09/M01 A3038 RMK A01 T00941009  RH  049%=      5-min Rain = 0
KPFS 141650Z 03014KT 09/M01 A3039 RMK A01 T00911010  RH  050%=      5-min Rain = 0
KPFS 141655Z 03013G18KT 09/M01 A3039 RMK A01 T00931010  RH  049%=      5-min Rain = 0
KPFS 141700Z 03013G20KT 10/M01 A3039 RMK A01 T00961010  RH  048%=      5-min Rain = 0
KPFS 141705Z 03013G20KT 10/M01 A3039 RMK A01 T00981009  RH  048%=      5-min Rain = 0
KPFS 141710Z 04014KT 10/M01 A3039 RMK A01 T00981011  RH  047%=      5-min Rain = 0
KPFS 141715Z 02015G21KT 10/M01 A3039 RMK A01 T01001011  RH  046%=      5-min Rain = 0
KPFS 141720Z 03014G19KT 10/M01 A3039 RMK A01 T01001012  RH  046%=      5-min Rain = 0
KPFS 141725Z 03015G20KT 10/M01 A3039 RMK A01 T01011012  RH  046%=      5-min Rain = 0
KPFS 141730Z 03016G23KT 10/M01 A3039 RMK A01 T00981013  RH  046%=      5-min Rain = 0
KPFS 141735Z 03014G20KT 10/M01 A3039 RMK A01 T01021012  RH  045%=      5-min Rain = 0
KPFS 141740Z 04013G20KT 11/M01 A3039 RMK A01 T01061011  RH  045%=      5-min Rain = 0
KPFS 141745Z 03013G20KT 11/M01 A3039 RMK A01 T01051013  RH  044%=      5-min Rain = 0
KPFS 141750Z 03015G20KT 11/M01 A3039 RMK A01 T01061012  RH  044%=      5-min Rain = 0
KPFS 141755Z 04012G18KT 11/M01 A3039 RMK A01 T01091011  RH  044%=      5-min Rain = 0
KPFS 141800Z 05014G19KT 11/M01 A3039 RMK A01 T01091011  RH  044%=      5-min Rain = 0
KPFS 141805Z 03011KT 11/M01 A3039 RMK A01 T01111011  RH  043%=      5-min Rain = 0
KPFS 141810Z 04008G14KT 12/M01 A3038 RMK A01 T01161008  RH  043%=      5-min Rain = 0
KPFS 141815Z 02011G17KT 12/M01 A3038 RMK A01 T01161009  RH  042%=      5-min Rain = 0
KPFS 141820Z 03015G22KT 12/M01 A3038 RMK A01 T01151011  RH  042%=      5-min Rain = 0
KPFS 141825Z 03012G18KT 12/M01 A3038 RMK A01 T01161011  RH  042%=      5-min Rain = 0
KPFS 141830Z 02012KT 12/M01 A3038 RMK A01 T01161011  RH  042%=      5-min Rain = 0
KPFS 141835Z 05013G19KT 12/M01 A3038 RMK A01 T01181011  RH  041%=      5-min Rain = 0
KPFS 141840Z 05012G19KT 12/M01 A3037 RMK A01 T01191011  RH  041%=      5-min Rain = 0
KPFS 141845Z 03011KT 12/M01 A3037 RMK A01 T01201012  RH  041%=      5-min Rain = 0
KPFS 141850Z 05011G19KT 12/M01 A3037 RMK A01 T01221010  RH  040%=      5-min Rain = 0
KPFS 141855Z 04011G17KT 12/M01 A3037 RMK A01 T01221012  RH  040%=      5-min Rain = 0
KPFS 141900Z 04010G16KT 12/M01 A3037 RMK A01 T01211012  RH  040%=      5-min Rain = 0
KPFS 141905Z 04012G18KT 12/M01 A3036 RMK A01 T01221012  RH  040%=      5-min Rain = 0
KPFS 141910Z 04010G16KT 12/M01 A3036 RMK A01 T01211013  RH  040%=      5-min Rain = 0
KPFS 141915Z 04012G18KT 13/M01 A3036 RMK A01 T01251012  RH  039%=      5-min Rain = 0
KPFS 141920Z 04014G21KT 12/M01 A3036 RMK A01 T01211014  RH  039%=      5-min Rain = 0
KPFS 141925Z 04012G17KT 12/M01 A3036 RMK A01 T01221013  RH  040%=      5-min Rain = 0
KPFS 141930Z 03010G15KT 13/M01 A3036 RMK A01 T01251011  RH  039%=      5-min Rain = 0
KPFS 141935Z 04011G17KT 13/M01 A3035 RMK A01 T01261011  RH  039%=      5-min Rain = 0
KPFS 141940Z 05010G15KT 13/M01 A3035 RMK A01 T01261011  RH  039%=      5-min Rain = 0
KPFS 141945Z 04011G18KT 13/M01 A3035 RMK A01 T01291011  RH  038%=      5-min Rain = 0
KPFS 141950Z 03011G17KT 13/M01 A3035 RMK A01 T01261012  RH  039%=      5-min Rain = 0
KPFS 141955Z 03012G18KT 13/M01 A3035 RMK A01 T01281012  RH  038%=      5-min Rain = 0
KPFS 142000Z 01013G18KT 12/M01 A3035 RMK A01 T01221014  RH  039%=      5-min Rain = 0
KPFS 142005Z 02013G18KT 13/M01 A3035 RMK A01 T01251012  RH  039%=      5-min Rain = 0
KPFS 142010Z 03011G16KT 13/M01 A3035 RMK A01 T01261013  RH  039%=      5-min Rain = 0
KPFS 142015Z 00012KT 13/M01 A3035 RMK A01 T01261012  RH  039%=      5-min Rain = 0
KPFS 142020Z 02010KT 13/M01 A3035 RMK A01 T01271011  RH  039%=      5-min Rain = 0
KPFS 142025Z 01010G15KT 13/M01 A3035 RMK A01 T01311011  RH  038%=      5-min Rain = 0
KPFS 142030Z 01011G18KT 13/M01 A3035 RMK A01 T01251012  RH  039%=      5-min Rain = 0
KPFS 142035Z 03012KT 13/M01 A3035 RMK A01 T01271012  RH  038%=      5-min Rain = 0
KPFS 142040Z 03010KT 13/M01 A3035 RMK A01 T01281012  RH  038%=      5-min Rain = 0
KPFS 142045Z 02008G14KT 13/M01 A3035 RMK A01 T01301011  RH  038%=      5-min Rain = 0
KPFS 142050Z 03008KT 13/M01 A3035 RMK A01 T01301011  RH  038%=      5-min Rain = 0
KPFS 142055Z 01010G15KT 13/M01 A3035 RMK A01 T01311012  RH  038%=      5-min Rain = 0
KPFS 142100Z 02008KT 13/M01 A3035 RMK A01 T01311012  RH  038%=      5-min Rain = 0
KPFS 142105Z 01009KT 13/M01 A3035 RMK A01 T01291013  RH  038%=      5-min Rain = 0
KPFS 142110Z 03008G14KT 13/M01 A3035 RMK A01 T01281013  RH  038%=      5-min Rain = 0
KPFS 142115Z 02009KT 13/M01 A3035 RMK A01 T01291012  RH  038%=      5-min Rain = 0
KPFS 142120Z 02008KT 13/M01 A3035 RMK A01 T01311012  RH  038%=      5-min Rain = 0
KPFS 142125Z 03010G16KT 13/M01 A3034 RMK A01 T01291014  RH  038%=      5-min Rain = 0
KPFS 142130Z 01009G15KT 13/M01 A3034 RMK A01 T01281013  RH  038%=      5-min Rain = 0
KPFS 142135Z 03009KT 13/M01 A3034 RMK A01 T01301012  RH  038%=      5-min Rain = 0
KPFS 142140Z 04008KT 13/M01 A3034 RMK A01 T01321012  RH  037%=      5-min Rain = 0
KPFS 142145Z 02009KT 13/M01 A3034 RMK A01 T01301013  RH  037%=      5-min Rain = 0
KPFS 142150Z 00007KT 13/M02 A3034 RMK A01 T01261015  RH  038%=      5-min Rain = 0
KPFS 142155Z 04009KT 13/M01 A3034 RMK A01 T01291013  RH  038%=      5-min Rain = 0
KPFS 142200Z 04007G12KT 13/M01 A3034 RMK A01 T01281013  RH  038%=      5-min Rain = 0
KPFS 142205Z 03007KT 13/M01 A3034 RMK A01 T01281013  RH  038%=      5-min Rain = 0
KPFS 142210Z 04009G14KT 13/M01 A3034 RMK A01 T01271014  RH  038%=      5-min Rain = 0
KPFS 142215Z 03006G11KT 13/M01 A3034 RMK A01 T01281013  RH  038%=      5-min Rain = 0
KPFS 142220Z 03008KT 13/M01 A3034 RMK A01 T01281013  RH  038%=      5-min Rain = 0
KPFS 142225Z 03006G11KT 13/M01 A3035 RMK A01 T01281014  RH  038%=      5-min Rain = 0
KPFS 142230Z 04008KT 13/M01 A3035 RMK A01 T01261014  RH  038%=      5-min Rain = 0
KPFS 142235Z 02007KT 13/M01 A3035 RMK A01 T01251013  RH  039%=      5-min Rain = 0
KPFS 142240Z 01007G12KT 13/M01 A3035 RMK A01 T01261014  RH  038%=      5-min Rain = 0
KPFS 142245Z 02007KT 12/M02 A3035 RMK A01 T01241015  RH  039%=      5-min Rain = 0
KPFS 142250Z 01009G14KT 12/M02 A3035 RMK A01 T01231015  RH  039%=      5-min Rain = 0
KPFS 142255Z 03008KT 12/M01 A3035 RMK A01 T01211014  RH  039%=      5-min Rain = 0
KPFS 142300Z 03008KT 12/M01 A3035 RMK A01 T01201014  RH  040%=      5-min Rain = 0
KPFS 142305Z 03007KT 12/M02 A3035 RMK A01 T01191015  RH  040%=      5-min Rain = 0
KPFS 142310Z 03007KT 12/M02 A3035 RMK A01 T01171015  RH  040%=      5-min Rain = 0
KPFS 142315Z 03007KT 12/M02 A3035 RMK A01 T01151016  RH  040%=      5-min Rain = 0
KPFS 142320Z 03006KT 11/M02 A3035 RMK A01 T01131016  RH  041%=      5-min Rain = 0
KPFS 142325Z 03005KT 11/M02 A3035 RMK A01 T01101016  RH  042%=      5-min Rain = 0
KPFS 142330Z 04005KT 11/M02 A3036 RMK A01 T01071016  RH  043%=      5-min Rain = 0
KPFS 142335Z 03005KT 10/M02 A3036 RMK A01 T01041017  RH  043%=      5-min Rain = 0
KPFS 142340Z 03004KT 10/M02 A3036 RMK A01 T01001017  RH  044%=      5-min Rain = 0
KPFS 142345Z 03004KT 10/M02 A3036 RMK A01 T00971016  RH  045%=      5-min Rain = 0
KPFS 142350Z 04004KT 09/M02 A3036 RMK A01 T00941017  RH  046%=      5-min Rain = 0
KPFS 142355Z 04004KT 09/M02 A3036 RMK A01 T00931016  RH  047%=      5-min Rain = 0
KPFS 150000Z 04004KT 09/M02 A3036 RMK A01 T00931016  RH  047%=      5-min Rain = 0
KPFS 150005Z 05005KT 09/M02 A3036 RMK A01 T00931016  RH  047%=      5-min Rain = 0
KPFS 150010Z 05005KT 09/M02 A3037 RMK A01 T00911016  RH  048%=      5-min Rain = 0
KPFS 150015Z 04005KT 09/M02 A3037 RMK A01 T00881015  RH  049%=      5-min Rain = 0
KPFS 150020Z 04005KT 09/M02 A3037 RMK A01 T00871015  RH  049%=      5-min Rain = 0
KPFS 150025Z 04005KT 08/M02 A3037 RMK A01 T00841015  RH  050%=      5-min Rain = 0
KPFS 150030Z 04004KT 08/M02 A3037 RMK A01 T00821015  RH  051%=      5-min Rain = 0
KPFS 150035Z 04004KT 08/M02 A3038 RMK A01 T00831015  RH  051%=      5-min Rain = 0
KPFS 150040Z 04005KT 08/M01 A3038 RMK A01 T00821014  RH  051%=      5-min Rain = 0
KPFS 150045Z 05005KT 08/M02 A3038 RMK A01 T00781015  RH  052%=      5-min Rain = 0
KPFS 150050Z 05005KT 08/M01 A3038 RMK A01 T00761014  RH  053%=      5-min Rain = 0
KPFS 150055Z 05006KT 07/M01 A3038 RMK A01 T00741014  RH  054%=      5-min Rain = 0
KPFS 150100Z 06006KT 07/M01 A3038 RMK A01 T00731014  RH  055%=      5-min Rain = 0
KPFS 150105Z 05005KT 07/M01 A3039 RMK A01 T00721014  RH  055%=      5-min Rain = 0
KPFS 150110Z 06004KT 07/M01 A3039 RMK A01 T00721014  RH  055%=      5-min Rain = 0
KPFS 150115Z 05004KT 07/M02 A3039 RMK A01 T00711015  RH  055%=      5-min Rain = 0
KPFS 150120Z 04003KT 07/M02 A3039 RMK A01 T00691015  RH  056%=      5-min Rain = 0
KPFS 150125Z 04003KT 07/M02 A3039 RMK A01 T00691015  RH  055%=      5-min Rain = 0
KPFS 150130Z 02003KT 07/M02 A3039 RMK A01 T00691016  RH  055%=      5-min Rain = 0
KPFS 150135Z 00002KT 07/M02 A304 RMK A01 T00671015  RH  056%=      5-min Rain = 0
KPFS 150140Z 02002KT 07/M02 A304 RMK A01 T00671015  RH  056%=      5-min Rain = 0
KPFS 150145Z 36001KT 07/M02 A304 RMK A01 T00671015  RH  056%=      5-min Rain = 0
KPFS 150150Z 36002KT 07/M02 A304 RMK A01 T00661015  RH  057%=      5-min Rain = 0
KPFS 150155Z 35002KT 06/M02 A304 RMK A01 T00641015  RH  057%=      5-min Rain = 0
KPFS 150200Z 00002KT 06/M02 A304 RMK A01 T00641015  RH  057%=      5-min Rain = 0
KPFS 150205Z 36002KT 07/M02 A304 RMK A01 T00651015  RH  057%=      5-min Rain = 0
KPFS 150210Z 35001KT 06/M02 A3041 RMK A01 T00641016  RH  057%=      5-min Rain = 0
KPFS 150215Z 32000KT 06/M02 A3041 RMK A01 T00581016  RH  059%=      5-min Rain = 0
KPFS 150220Z 26001KT 06/M02 A3041 RMK A01 T00561016  RH  060%=      5-min Rain = 0
KPFS 150225Z 19001KT 05/M02 A3041 RMK A01 T00491017  RH  062%=      5-min Rain = 0
KPFS 150230Z 18001KT 04/M02 A3041 RMK A01 T00421017  RH  066%=      5-min Rain = 0
KPFS 150235Z 19001KT 04/M02 A3041 RMK A01 T00441015  RH  066%=      5-min Rain = 0
KPFS 150240Z 21002KT 05/M02 A3041 RMK A01 T00471015  RH  064%=      5-min Rain = 0
KPFS 150245Z 20003KT 05/M02 A3041 RMK A01 T00461017  RH  064%=      5-min Rain = 0
KPFS 150250Z 21002KT 04/M02 A3041 RMK A01 T00421017  RH  066%=      5-min Rain = 0
KPFS 150255Z 21001KT 04/M02 A3041 RMK A01 T00421016  RH  066%=      5-min Rain = 0
KPFS 150300Z 21001KT 05/M02 A3041 RMK A01 T00451015  RH  065%=      5-min Rain = 0
KPFS 150305Z 21001KT 05/M02 A3042 RMK A01 T00471015  RH  064%=      5-min Rain = 0
KPFS 150310Z 20001KT 04/M02 A3042 RMK A01 T00441017  RH  065%=      5-min Rain = 0
KPFS 150315Z 19001KT 04/M02 A3042 RMK A01 T00391017  RH  067%=      5-min Rain = 0
KPFS 150320Z 19002KT 04/M02 A3042 RMK A01 T00371017  RH  068%=      5-min Rain = 0
KPFS 150325Z 20002KT 04/M02 A3042 RMK A01 T00361017  RH  069%=      5-min Rain = 0
KPFS 150330Z 21002KT 04/M02 A3042 RMK A01 T00351016  RH  070%=      5-min Rain = 0
KPFS 150335Z 21002KT 04/M02 A3042 RMK A01 T00401015  RH  068%=      5-min Rain = 0
KPFS 150340Z 22002KT 04/M02 A3042 RMK A01 T00401016  RH  067%=      5-min Rain = 0
KPFS 150345Z 23001KT 04/M02 A3042 RMK A01 T00421015  RH  067%=      5-min Rain = 0
KPFS 150350Z 24001KT 04/M02 A3043 RMK A01 T00391018  RH  067%=      5-min Rain = 0
KPFS 150355Z 23000KT 03/M02 A3043 RMK A01 T00311019  RH  070%=      5-min Rain = 0
KPFS 150400Z 30000KT 04/M01 A3042 RMK A01 T00381014  RH  069%=      5-min Rain = 0
KPFS 150405Z 31001KT 05/M01 A3043 RMK A01 T00461014  RH  065%=      5-min Rain = 0
KPFS 150410Z 31001KT 05/M02 A3043 RMK A01 T00501015  RH  063%=      5-min Rain = 0
KPFS 150415Z 32002KT 05/M02 A3043 RMK A01 T00451018  RH  064%=      5-min Rain = 0
KPFS 150420Z 31002KT 04/M02 A3043 RMK A01 T00351018  RH  069%=      5-min Rain = 0
KPFS 150425Z 32003KT 04/M02 A3043 RMK A01 T00361017  RH  069%=      5-min Rain = 0
KPFS 150430Z 32003KT 03/M02 A3043 RMK A01 T00301020  RH  070%=      5-min Rain = 0
KPFS 150435Z 32003KT 02/M02 A3043 RMK A01 T00241020  RH  073%=      5-min Rain = 0
KPFS 150440Z 31003KT 03/M02 A3043 RMK A01 T00261019  RH  073%=      5-min Rain = 0
KPFS 150445Z 31003KT 03/M02 A3042 RMK A01 T00271018  RH  073%=      5-min Rain = 0
KPFS 150450Z 31001KT 03/M02 A3042 RMK A01 T00291018  RH  072%=      5-min Rain = 0
KPFS 150455Z 29001KT 03/M02 A3042 RMK A01 T00311018  RH  071%=      5-min Rain = 0
KPFS 150500Z 27001KT 03/M02 A3042 RMK A01 T00301019  RH  071%=      5-min Rain = 0
KPFS 150505Z 27001KT 03/M02 A3042 RMK A01 T00301019  RH  071%=      5-min Rain = 0
KPFS 150510Z 26001KT 03/M02 A3042 RMK A01 T00311017  RH  071%=      5-min Rain = 0
KPFS 150515Z 23002KT 02/M02 A3043 RMK A01 T00221024  RH  072%=      5-min Rain = 0
KPFS 150520Z 24002KT 02/M02 A3043 RMK A01 T00181020  RH  076%=      5-min Rain = 0
KPFS 150525Z 24001KT 03/M01 A3042 RMK A01 T00311013  RH  074%=      5-min Rain = 0
KPFS 150530Z 26001KT 04/M01 A3042 RMK A01 T00381014  RH  069%=      5-min Rain = 0
KPFS 150535Z 28002KT 04/M01 A3042 RMK A01 T00391014  RH  069%=      5-min Rain = 0
KPFS 150540Z 27001KT 03/M02 A3042 RMK A01 T00321021  RH  069%=      5-min Rain = 0
KPFS 150545Z 27000KT 02/M02 A3042 RMK A01 T00231021  RH  073%=      5-min Rain = 0
KPFS 150550Z 28001KT 03/M01 A3042 RMK A01 T00311014  RH  073%=      5-min Rain = 0
KPFS 150555Z 28001KT 04/M02 A3042 RMK A01 T00351015  RH  070%=      5-min Rain = 0

Page generated in 0.009 seconds.